Time;durP1;ratioP1;P1;durP2;ratioP2;P2;SDS_P1;SDS_P2;PMS_P1;PMS_P2;Temp;Humidity;BMP_temperature;BMP_pressure;BME280_temperature;BME280_humidity;BME280_pressure;Samples;Min_cycle;Max_cycle;Signal;HPM_P1;HPM_P2
2020/05/04 00:02:23;;;;;;;2.2;1.8;;;;;;;10.25;80.84082;939.984;;;;
2020/05/04 00:04:05;;;;;;;2.9;1.9;;;;;;;10.26;81.61719;939.9825;;;;
2020/05/04 00:06:30;;;;;;;3.2;1.9;;;;;;;10.15;82.47656;939.955;;;;
2020/05/04 00:11:20;;;;;;;3;1.8;;;;;;;10.29;82.29883;939.936;;;;
2020/05/04 00:13:46;;;;;;;4.1;1.8;;;;;;;10.3;82.42578;940.0555;;;;
2020/05/04 00:16:11;;;;;;;3;1.7;;;;;;;10.25;82.41406;940.0412;;;;
2020/05/04 00:18:36;;;;;;;3.8;1.8;;;;;;;10.21;82.97754;940.0336;;;;
2020/05/04 00:21:02;;;;;;;3.8;1.9;;;;;;;10.18;83.44043;939.9387;;;;
2020/05/04 00:23:27;;;;;;;3.8;2;;;;;;;10.11;83.40332;939.9592;;;;
2020/05/04 00:25:52;;;;;;;4.6;2.1;;;;;;;10.11;83.02539;939.9871;;;;
2020/05/04 00:28:19;;;;;;;2.6;1.9;;;;;;;10.09;83.34277;939.9828;;;;
2020/05/04 00:30:44;;;;;;;4;1.9;;;;;;;10.15;83.42383;940.0378;;;;
2020/05/04 00:33:10;;;;;;;3;1.8;;;;;;;10.09;82.49902;940.111;;;;
2020/05/04 00:35:35;;;;;;;3.3;1.8;;;;;;;10.02;83.80762;940.0923;;;;
2020/05/04 00:38:00;;;;;;;3.6;1.9;;;;;;;9.91;84.06055;940.0801;;;;
2020/05/04 00:40:26;;;;;;;3;1.6;;;;;;;9.93;84.51953;940.0367;;;;
2020/05/04 00:42:51;;;;;;;3.3;1.8;;;;;;;10.08;84.26465;940.0486;;;;
2020/05/04 00:45:16;;;;;;;3.5;1.7;;;;;;;9.94;84.66016;940.0472;;;;
2020/05/04 00:47:41;;;;;;;2.4;1.7;;;;;;;9.93;84.83887;940.0136;;;;
2020/05/04 00:50:06;;;;;;;3.8;2;;;;;;;9.93;84.95313;939.9095;;;;
2020/05/04 00:52:32;;;;;;;3.2;2;;;;;;;10.06;84.53516;939.9633;;;;
2020/05/04 00:54:57;;;;;;;4.1;2.1;;;;;;;10;84.33984;939.9597;;;;
2020/05/04 00:57:22;;;;;;;4;2.1;;;;;;;9.99;84.63477;939.8967;;;;
2020/05/04 00:59:47;;;;;;;4.6;2.2;;;;;;;10.01;85.0127;939.8922;;;;
2020/05/04 01:02:12;;;;;;;4;2.1;;;;;;;10.11;84.87305;939.8215;;;;
2020/05/04 01:04:38;;;;;;;3.2;2.1;;;;;;;10.17;84.12305;939.8692;;;;
2020/05/04 01:07:03;;;;;;;2.3;1.7;;;;;;;10.1;83.43555;939.819;;;;
2020/05/04 01:10:21;;;;;;;2.7;1.6;;;;;;;10.07;84.28613;939.864;;;;
2020/05/04 01:12:46;;;;;;;2.2;1.6;;;;;;;;;;;;;
2020/05/04 01:15:11;;;;;;;2.4;1.7;;;;;;;;;;;;;
2020/05/04 01:17:37;;;;;;;2.6;1.7;;;;;;;;;;;;;
2020/05/04 01:20:02;;;;;;;2.3;1.6;;;;;;;;;;;;;
2020/05/04 01:22:27;;;;;;;2.5;1.6;;;;;;;;;;;;;
2020/05/04 01:24:52;;;;;;;1.7;1.6;;;;;;;;;;;;;
2020/05/04 01:27:20;;;;;;;3.4;1.6;;;;;;;;;;;;;
2020/05/04 01:29:45;;;;;;;2.7;1.5;;;;;;;;;;;;;
2020/05/04 01:32:15;;;;;;;2.8;1.6;;;;;;;;;;;;;
2020/05/04 01:34:41;;;;;;;1.9;1.7;;;;;;;;;;;;;
2020/05/04 01:36:58;;;;;;;2.7;1.6;;;;;;;;;;;;;
2020/05/04 01:39:23;;;;;;;1.7;1.5;;;;;;;;;;;;;
2020/05/04 01:41:49;;;;;;;3.4;1.8;;;;;;;;;;;;;
2020/05/04 01:44:14;;;;;;;2.5;1.9;;;;;;;;;;;;;
2020/05/04 01:46:39;;;;;;;4;1.9;;;;;;;;;;;;;
2020/05/04 01:49:04;;;;;;;3;1.9;;;;;;;;;;;;;
2020/05/04 01:51:29;;;;;;;3.3;1.9;;;;;;;;;;;;;
2020/05/04 01:53:54;;;;;;;2.7;2.1;;;;;;;;;;;;;
2020/05/04 01:56:19;;;;;;;2.3;2;;;;;;;;;;;;;
2020/05/04 01:58:44;;;;;;;13.8;12.1;;;;;;;;;;;;;
2020/05/04 02:01:10;;;;;;;3.1;1.9;;;;;;;;;;;;;
2020/05/04 02:03:35;;;;;;;2.4;1.8;;;;;;;;;;;;;
2020/05/04 02:06:00;;;;;;;2.4;2.2;;;;;;;;;;;;;
2020/05/04 02:08:25;;;;;;;3.2;2.1;;;;;;;;;;;;;
2020/05/04 02:10:50;;;;;;;3.8;2.5;;;;;;;;;;;;;
2020/05/04 02:13:15;;;;;;;3.7;2.6;;;;;;;;;;;;;
2020/05/04 02:15:41;;;;;;;3.9;2.5;;;;;;;;;;;;;
2020/05/04 02:18:06;;;;;;;2.5;2.1;;;;;;;;;;;;;
2020/05/04 02:20:31;;;;;;;3.5;2;;;;;;;;;;;;;
2020/05/04 02:22:56;;;;;;;2.1;1.9;;;;;;;;;;;;;
2020/05/04 02:25:21;;;;;;;4.7;2.2;;;;;;;;;;;;;
2020/05/04 02:27:46;;;;;;;3.8;2.1;;;;;;;;;;;;;
2020/05/04 02:30:11;;;;;;;2.9;2.2;;;;;;;;;;;;;
2020/05/04 02:32:37;;;;;;;4.3;2.5;;;;;;;;;;;;;
2020/05/04 02:35:02;;;;;;;4.5;2.4;;;;;;;;;;;;;
2020/05/04 02:37:41;;;;;;;3.3;2.2;;;;;;;;;;;;;
2020/05/04 02:39:52;;;;;;;3.4;2.1;;;;;;;;;;;;;
2020/05/04 02:42:17;;;;;;;2.7;2.1;;;;;;;;;;;;;
2020/05/04 02:44:42;;;;;;;2.5;2;;;;;;;;;;;;;
2020/05/04 02:47:08;;;;;;;2.3;2;;;;;;;;;;;;;
2020/05/04 02:49:35;;;;;;;2.5;2.2;;;;;;;;;;;;;
2020/05/04 02:51:58;;;;;;;3.5;2.1;;;;;;;;;;;;;
2020/05/04 02:54:23;;;;;;;2.6;2.1;;;;;;;;;;;;;
2020/05/04 02:56:49;;;;;;;3.6;2.2;;;;;;;;;;;;;
2020/05/04 02:59:14;;;;;;;4.7;2.3;;;;;;;;;;;;;
2020/05/04 03:01:39;;;;;;;2.7;2.1;;;;;;;;;;;;;
2020/05/04 03:04:04;;;;;;;3.3;2.1;;;;;;;;;;;;;
2020/05/04 03:06:29;;;;;;;2.3;2.1;;;;;;;;;;;;;
2020/05/04 03:08:55;;;;;;;3.7;2.2;;;;;;;;;;;;;
2020/05/04 03:11:20;;;;;;;3.9;2.3;;;;;;;;;;;;;
2020/05/04 03:13:45;;;;;;;3.7;2.1;;;;;;;;;;;;;
2020/05/04 03:16:10;;;;;;;2.9;2;;;;;;;;;;;;;
2020/05/04 03:18:36;;;;;;;3.8;2.2;;;;;;;;;;;;;
2020/05/04 03:21:02;;;;;;;2.8;2.1;;;;;;;;;;;;;
2020/05/04 03:23:27;;;;;;;2.4;2;;;;;;;;;;;;;
2020/05/04 03:25:52;;;;;;;4.8;2.9;;;;;;;;;;;;;
2020/05/04 03:28:17;;;;;;;6;3.3;;;;;;;;;;;;;
2020/05/04 03:30:42;;;;;;;4.8;2.7;;;;;;;;;;;;;
2020/05/04 03:33:07;;;;;;;4.4;2.9;;;;;;;;;;;;;
2020/05/04 03:35:33;;;;;;;3.9;2.5;;;;;;;;;;;;;
2020/05/04 03:37:58;;;;;;;2.8;2;;;;;;;;;;;;;
2020/05/04 03:40:24;;;;;;;4.6;2.2;;;;;;;;;;;;;
2020/05/04 03:42:49;;;;;;;3;2;;;;;;;;;;;;;
2020/05/04 03:45:16;;;;;;;2.4;2;;;;;;;;;;;;;
2020/05/04 03:47:41;;;;;;;2.6;2;;;;;;;;;;;;;
2020/05/04 03:50:06;;;;;;;3.3;1.9;;;;;;;;;;;;;
2020/05/04 03:52:32;;;;;;;3.2;2;;;;;;;;;;;;;
2020/05/04 03:54:57;;;;;;;3.1;2.1;;;;;;;;;;;;;
2020/05/04 03:57:22;;;;;;;3.7;2;;;;;;;;;;;;;
2020/05/04 03:59:47;;;;;;;4.4;2;;;;;;;;;;;;;
2020/05/04 04:02:30;;;;;;;4.4;1.8;;;;;;;9.51;87.10254;939.1426;;;;
2020/05/04 04:04:55;;;;;;;2.7;1.6;;;;;;;9.53;86.20996;939.2916;;;;
2020/05/04 04:07:20;;;;;;;2.9;1.7;;;;;;;9.62;85.42871;939.2439;;;;
2020/05/04 04:09:45;;;;;;;2.4;1.6;;;;;;;9.53;85.54688;939.2932;;;;
2020/05/04 04:12:10;;;;;;;2.5;1.7;;;;;;;9.57;85.85059;939.2278;;;;
2020/05/04 04:14:36;;;;;;;12.1;2.2;;;;;;;9.44;86.18945;939.2935;;;;
2020/05/04 04:17:01;;;;;;;2.4;1.8;;;;;;;9.48;86.70996;939.2296;;;;
2020/05/04 04:19:26;;;;;;;2.7;1.8;;;;;;;9.55;86.31445;939.2378;;;;
2020/05/04 04:21:51;;;;;;;2.8;1.8;;;;;;;9.55;86.04199;939.2506;;;;
2020/05/04 04:24:16;;;;;;;3;2.3;;;;;;;9.51;86.72852;939.2214;;;;
2020/05/04 04:26:42;;;;;;;4.1;2.1;;;;;;;9.56;86.82813;939.2833;;;;
2020/05/04 04:29:07;;;;;;;2.9;1.9;;;;;;;9.69;86.61426;939.3228;;;;
2020/05/04 04:31:32;;;;;;;2.7;2.1;;;;;;;9.72;86.62207;939.3145;;;;
2020/05/04 04:33:57;;;;;;;3.2;2;;;;;;;9.7;86.47949;939.3444;;;;
2020/05/04 04:36:22;;;;;;;2.9;2.1;;;;;;;9.79;85.12988;939.3742;;;;
2020/05/04 04:38:47;;;;;;;2.2;1.9;;;;;;;9.82;83.60938;939.3925;;;;
2020/05/04 04:41:12;;;;;;;5.7;3.3;;;;;;;9.88;84.62305;939.4228;;;;
2020/05/04 04:43:40;;;;;;;4.1;3;;;;;;;9.91;84.67578;939.416;;;;
2020/05/04 04:46:05;;;;;;;4.2;3.1;;;;;;;9.95;84.83105;939.3616;;;;
2020/05/04 04:48:30;;;;;;;3.8;2.7;;;;;;;9.86;84.24316;939.3867;;;;
2020/05/04 04:50:56;;;;;;;3.1;2.3;;;;;;;9.88;83.64258;939.3647;;;;
2020/05/04 04:53:21;;;;;;;3.8;2.4;;;;;;;9.96;83.83008;939.3459;;;;
2020/05/04 04:55:46;;;;;;;3.2;2.2;;;;;;;10.03;84.10645;939.3822;;;;
2020/05/04 04:58:12;;;;;;;4.5;2.2;;;;;;;;;;;;;
2020/05/04 05:00:37;;;;;;;3.2;1.6;;;;;;;;;;;;;
2020/05/04 05:03:02;;;;;;;2.2;1.6;;;;;;;;;;;;;
2020/05/04 05:05:27;;;;;;;2.6;1.6;;;;;;;;;;;;;
2020/05/04 05:07:53;;;;;;;1.9;1.6;;;;;;;;;;;;;
2020/05/04 05:10:18;;;;;;;2.7;2.1;;;;;;;;;;;;;
2020/05/04 05:12:43;;;;;;;2.9;1.9;;;;;;;;;;;;;
2020/05/04 05:15:08;;;;;;;2.8;1.7;;;;;;;;;;;;;
2020/05/04 05:17:33;;;;;;;2.4;1.8;;;;;;;;;;;;;
2020/05/04 05:19:58;;;;;;;3.1;1.7;;;;;;;;;;;;;
2020/05/04 05:22:23;;;;;;;2.5;2.1;;;;;;;;;;;;;
2020/05/04 05:24:49;;;;;;;4.6;2.5;;;;;;;;;;;;;
2020/05/04 05:27:15;;;;;;;2.7;1.6;;;;;;;;;;;;;
2020/05/04 05:29:40;;;;;;;3.2;1.7;;;;;;;;;;;;;
2020/05/04 05:32:05;;;;;;;1.9;1.4;;;;;;;;;;;;;
2020/05/04 05:34:30;;;;;;;1.8;1.4;;;;;;;;;;;;;
2020/05/04 05:36:56;;;;;;;4.2;1.7;;;;;;;;;;;;;
2020/05/04 05:39:21;;;;;;;2;1.4;;;;;;;;;;;;;
2020/05/04 05:41:46;;;;;;;3;1.4;;;;;;;;;;;;;
2020/05/04 05:44:11;;;;;;;4.9;1.6;;;;;;;;;;;;;
2020/05/04 05:46:37;;;;;;;2.2;1.5;;;;;;;;;;;;;
2020/05/04 05:49:02;;;;;;;3;1.5;;;;;;;;;;;;;
2020/05/04 05:51:27;;;;;;;1.6;1.2;;;;;;;;;;;;;
2020/05/04 05:53:52;;;;;;;1.7;1.4;;;;;;;;;;;;;
2020/05/04 05:56:17;;;;;;;3.6;1.5;;;;;;;;;;;;;
2020/05/04 05:58:49;;;;;;;2.8;1.5;;;;;;;;;;;;;
2020/05/04 06:02:59;;;;;;;2;1.2;;;;;;;;;;;;;
2020/05/04 06:03:40;;;;;;;2.5;1.4;;;;;;;;;;;;;
2020/05/04 06:05:58;;;;;;;4.1;1.3;;;;;;;;;;;;;
2020/05/04 06:08:23;;;;;;;8.3;3.3;;;;;;;;;;;;;
2020/05/04 06:10:48;;;;;;;4;1.5;;;;;;;;;;;;;
2020/05/04 06:13:13;;;;;;;5.4;1.6;;;;;;;;;;;;;
2020/05/04 06:15:38;;;;;;;4.2;1.6;;;;;;;;;;;;;
2020/05/04 06:18:03;;;;;;;5.6;1.7;;;;;;;;;;;;;
2020/05/04 06:20:29;;;;;;;15.8;2.3;;;;;;;;;;;;;
2020/05/04 06:22:54;;;;;;;4;1.3;;;;;;;;;;;;;
2020/05/04 06:25:19;;;;;;;7.4;1.5;;;;;;;;;;;;;
2020/05/04 06:27:44;;;;;;;11.6;2;;;;;;;;;;;;;
2020/05/04 06:30:09;;;;;;;8.7;1.8;;;;;;;;;;;;;
2020/05/04 06:32:34;;;;;;;4.1;1.8;;;;;;;;;;;;;
2020/05/04 06:34:59;;;;;;;6.1;1.5;;;;;;;;;;;;;
2020/05/04 06:37:25;;;;;;;11;1.9;;;;;;;;;;;;;
2020/05/04 06:39:50;;;;;;;7.2;1.9;;;;;;;;;;;;;
2020/05/04 06:42:15;;;;;;;11.6;2;;;;;;;;;;;;;
2020/05/04 06:44:40;;;;;;;12.6;1.8;;;;;;;;;;;;;
2020/05/04 06:47:05;;;;;;;9.7;1.9;;;;;;;;;;;;;
2020/05/04 06:49:31;;;;;;;7.9;1.8;;;;;;;;;;;;;
2020/05/04 06:51:56;;;;;;;2.5;1.1;;;;;;;;;;;;;
2020/05/04 06:54:22;;;;;;;14.2;2.3;;;;;;;;;;;;;
2020/05/04 06:56:47;;;;;;;12.7;2;;;;;;;;;;;;;
2020/05/04 06:59:12;;;;;;;4.1;1.1;;;;;;;;;;;;;
2020/05/04 07:01:37;;;;;;;1.6;0.9;;;;;;;;;;;;;
2020/05/04 07:04:02;;;;;;;3;1.1;;;;;;;;;;;;;
2020/05/04 07:06:28;;;;;;;9.8;1.8;;;;;;;;;;;;;
2020/05/04 07:08:53;;;;;;;4.8;1.4;;;;;;;;;;;;;
2020/05/04 07:11:18;;;;;;;4.7;1.2;;;;;;;;;;;;;
2020/05/04 07:13:43;;;;;;;2.2;1;;;;;;;;;;;;;
2020/05/04 07:16:08;;;;;;;6.2;1.5;;;;;;;;;;;;;
2020/05/04 07:18:33;;;;;;;25.6;2.9;;;;;;;;;;;;;
2020/05/04 07:20:58;;;;;;;2.6;1.2;;;;;;;;;;;;;
2020/05/04 07:23:23;;;;;;;6.4;1.6;;;;;;;;;;;;;
2020/05/04 07:25:49;;;;;;;4.2;1.3;;;;;;;;;;;;;
2020/05/04 07:28:15;;;;;;;6;1.3;;;;;;;;;;;;;
2020/05/04 07:30:40;;;;;;;5.6;1.1;;;;;;;;;;;;;
2020/05/04 07:33:06;;;;;;;4.8;1.2;;;;;;;;;;;;;
2020/05/04 07:35:31;;;;;;;3.4;0.8;;;;;;;;;;;;;
2020/05/04 07:37:57;;;;;;;3;0.9;;;;;;;;;;;;;
2020/05/04 07:40:22;;;;;;;5.9;1;;;;;;;;;;;;;
2020/05/04 07:42:48;;;;;;;5.7;1.3;;;;;;;;;;;;;
2020/05/04 07:45:13;;;;;;;5;1.4;;;;;;;;;;;;;
2020/05/04 07:47:39;;;;;;;1.6;1;;;;;;;;;;;;;
2020/05/04 07:50:04;;;;;;;15.5;2.2;;;;;;;;;;;;;
2020/05/04 07:52:29;;;;;;;2.9;1;;;;;;;;;;;;;
2020/05/04 07:54:55;;;;;;;6.8;1.2;;;;;;;;;;;;;
2020/05/04 07:57:20;;;;;;;2.5;1.1;;;;;;;;;;;;;
2020/05/04 07:59:45;;;;;;;4.5;1.2;;;;;;;;;;;;;
2020/05/04 08:02:11;;;;;;;4.7;1.1;;;;;;;;;;;;;
2020/05/04 08:04:36;;;;;;;3.4;1.1;;;;;;;;;;;;;
2020/05/04 08:07:01;;;;;;;6.2;1.1;;;;;;;;;;;;;
2020/05/04 08:09:26;;;;;;;2.7;1;;;;;;;;;;;;;
2020/05/04 08:11:51;;;;;;;4.7;1.4;;;;;;;;;;;;;
2020/05/04 08:14:16;;;;;;;3.3;1.1;;;;;;;;;;;;;
2020/05/04 08:16:42;;;;;;;4.7;1.2;;;;;;;;;;;;;
2020/05/04 08:19:07;;;;;;;1.6;0.9;;;;;;;;;;;;;
2020/05/04 08:21:32;;;;;;;5.1;1.1;;;;;;;;;;;;;
2020/05/04 08:23:57;;;;;;;6;1.2;;;;;;;;;;;;;
2020/05/04 08:26:23;;;;;;;2.6;1;;;;;;;;;;;;;
2020/05/04 08:28:48;;;;;;;1.5;1;;;;;;;;;;;;;
2020/05/04 08:31:14;;;;;;;1;0.8;;;;;;;;;;;;;
2020/05/04 08:33:39;;;;;;;2;1;;;;;;;;;;;;;
2020/05/04 08:36:05;;;;;;;2.4;1;;;;;;;;;;;;;
2020/05/04 08:38:30;;;;;;;2.3;0.9;;;;;;;;;;;;;
2020/05/04 08:40:56;;;;;;;2.6;0.8;;;;;;;;;;;;;
2020/05/04 08:43:21;;;;;;;3.9;1;;;;;;;;;;;;;
2020/05/04 08:48:14;;;;;;;2;0.8;;;;;;;;;;;;;
2020/05/04 08:50:38;;;;;;;1.3;0.8;;;;;;;;;;;;;
2020/05/04 08:53:03;;;;;;;3.1;0.9;;;;;;;;;;;;;
2020/05/04 08:55:28;;;;;;;1.8;0.8;;;;;;;;;;;;;
2020/05/04 08:57:54;;;;;;;1.2;0.8;;;;;;;;;;;;;
2020/05/04 09:00:43;;;;;;;1.2;0.8;;;;;;;;;;;;;
2020/05/04 09:06:19;;;;;;;4.7;1;;;;;;;;;;;;;
2020/05/04 09:09:03;;;;;;;2.9;1;;;;;;;;;;;;;
2020/05/04 09:11:30;;;;;;;3.4;1;;;;;;;;;;;;;
2020/05/04 09:14:31;;;;;;;3.3;1.1;;;;;;;;;;;;;
2020/05/04 09:16:22;;;;;;;5.6;1.1;;;;;;;;;;;;;
2020/05/04 09:18:56;;;;;;;4.9;0.9;;;;;;;;;;;;;
2020/05/04 09:21:07;;;;;;;6.3;1.3;;;;;;;;;;;;;
2020/05/04 09:23:33;;;;;;;5.6;0.9;;;;;;;;;;;;;
2020/05/04 09:25:58;;;;;;;3.8;0.9;;;;;;;;;;;;;
2020/05/04 09:28:23;;;;;;;3;1;;;;;;;;;;;;;
2020/05/04 09:30:48;;;;;;;3.3;1;;;;;;;;;;;;;
2020/05/04 09:33:13;;;;;;;2.3;0.9;;;;;;;;;;;;;
2020/05/04 09:35:39;;;;;;;2.7;0.8;;;;;;;;;;;;;
2020/05/04 09:38:04;;;;;;;2.6;1;;;;;;;;;;;;;
2020/05/04 09:40:29;;;;;;;2.3;1;;;;;;;;;;;;;
2020/05/04 09:42:54;;;;;;;4.8;0.9;;;;;;;;;;;;;
2020/05/04 09:45:20;;;;;;;2.5;0.8;;;;;;;;;;;;;
2020/05/04 09:47:45;;;;;;;2;0.8;;;;;;;;;;;;;
2020/05/04 09:50:10;;;;;;;2.4;0.7;;;;;;;;;;;;;
2020/05/04 09:52:35;;;;;;;3.9;0.8;;;;;;;;;;;;;
2020/05/04 09:55:01;;;;;;;1.8;0.8;;;;;;;;;;;;;
2020/05/04 09:57:26;;;;;;;2.1;0.8;;;;;;;;;;;;;
2020/05/04 09:59:51;;;;;;;5.6;0.8;;;;;;;;;;;;;
2020/05/04 10:02:16;;;;;;;2;0.7;;;;;;;;;;;;;
2020/05/04 10:04:41;;;;;;;2.2;0.9;;;;;;;;;;;;;
2020/05/04 10:07:07;;;;;;;1.5;0.8;;;;;;;;;;;;;
2020/05/04 10:09:32;;;;;;;2.5;0.8;;;;;;;;;;;;;
2020/05/04 10:11:57;;;;;;;5.7;0.7;;;;;;;;;;;;;
2020/05/04 10:14:22;;;;;;;2.1;0.7;;;;;;;;;;;;;
2020/05/04 10:16:47;;;;;;;1.6;0.6;;;;;;;;;;;;;
2020/05/04 10:19:12;;;;;;;2;0.5;;;;;;;;;;;;;
2020/05/04 10:21:38;;;;;;;2.3;0.6;;;;;;;;;;;;;
2020/05/04 10:24:03;;;;;;;1.8;0.5;;;;;;;;;;;;;
2020/05/04 10:26:28;;;;;;;1.2;0.6;;;;;;;;;;;;;
2020/05/04 10:28:54;;;;;;;2.8;0.7;;;;;;;;;;;;;
2020/05/04 10:31:19;;;;;;;2.4;0.7;;;;;;;;;;;;;
2020/05/04 10:33:46;;;;;;;2.5;0.7;;;;;;;;;;;;;
2020/05/04 10:36:11;;;;;;;2;0.8;;;;;;;;;;;;;
2020/05/04 10:38:38;;;;;;;3.2;0.9;;;;;;;;;;;;;
2020/05/04 10:41:03;;;;;;;3;0.8;;;;;;;;;;;;;
2020/05/04 10:43:28;;;;;;;1.7;0.7;;;;;;;;;;;;;
2020/05/04 10:45:53;;;;;;;1.8;0.8;;;;;;;;;;;;;
2020/05/04 10:48:19;;;;;;;2.4;0.8;;;;;;;;;;;;;
2020/05/04 10:50:45;;;;;;;2.9;0.8;;;;;;;;;;;;;
2020/05/04 10:53:10;;;;;;;1.9;1;;;;;;;;;;;;;
2020/05/04 10:55:35;;;;;;;2.1;0.8;;;;;;;;;;;;;
2020/05/04 10:58:00;;;;;;;1.8;0.6;;;;;;;;;;;;;
2020/05/04 11:00:26;;;;;;;1.4;0.8;;;;;;;;;;;;;
2020/05/04 11:02:51;;;;;;;3.7;0.8;;;;;;;;;;;;;
2020/05/04 11:05:16;;;;;;;1.3;0.8;;;;;;;;;;;;;
2020/05/04 11:07:41;;;;;;;5;0.9;;;;;;;;;;;;;
2020/05/04 11:10:06;;;;;;;1.2;0.8;;;;;;;;;;;;;
2020/05/04 11:12:31;;;;;;;2.5;0.8;;;;;;;;;;;;;
2020/05/04 11:14:57;;;;;;;1.8;0.8;;;;;;;;;;;;;
2020/05/04 11:17:22;;;;;;;1.8;0.8;;;;;;;;;;;;;
2020/05/04 11:19:49;;;;;;;2.5;0.8;;;;;;;;;;;;;
2020/05/04 11:22:14;;;;;;;1.9;0.7;;;;;;;;;;;;;
2020/05/04 11:24:39;;;;;;;1.2;0.6;;;;;;;;;;;;;
2020/05/04 11:27:04;;;;;;;2.3;1;;;;;;;;;;;;;
2020/05/04 11:29:29;;;;;;;1.6;0.8;;;;;;;;;;;;;
2020/05/04 11:31:59;;;;;;;1;0.7;;;;;;;;;;;;;
2020/05/04 11:34:24;;;;;;;1.3;0.8;;;;;;;;;;;;;
2020/05/04 11:36:53;;;;;;;1.4;0.9;;;;;;;;;;;;;
2020/05/04 11:39:09;;;;;;;2.1;0.9;;;;;;;;;;;;;
2020/05/04 11:41:35;;;;;;;1.5;0.7;;;;;;;;;;;;;
2020/05/04 11:44:00;;;;;;;2.8;0.8;;;;;;;;;;;;;
2020/05/04 11:46:25;;;;;;;1.5;0.8;;;;;;;;;;;;;
2020/05/04 11:48:50;;;;;;;1;0.7;;;;;;;;;;;;;
2020/05/04 11:51:15;;;;;;;2.5;0.8;;;;;;;;;;;;;
2020/05/04 11:53:41;;;;;;;1.6;0.6;;;;;;;;;;;;;
2020/05/04 11:56:06;;;;;;;1.2;0.7;;;;;;;;;;;;;
2020/05/04 11:58:31;;;;;;;1.9;0.7;;;;;;;;;;;;;
2020/05/04 12:08:18;;;;;;;2.5;0.7;;;;;;;;;;;;;
2020/05/04 12:20:18;;;;;;;1.6;0.7;;;;;;;;;;;;;
2020/05/04 12:22:43;;;;;;;1.5;0.7;;;;;;;;;;;;;
2020/05/04 12:25:08;;;;;;;1.5;0.6;;;;;;;;;;;;;
2020/05/04 12:27:33;;;;;;;1.8;0.7;;;;;;;;;;;;;
2020/05/04 12:29:58;;;;;;;2.5;0.8;;;;;;;;;;;;;
2020/05/04 12:32:23;;;;;;;1.2;0.7;;;;;;;;;;;;;
2020/05/04 12:34:48;;;;;;;1.4;0.7;;;;;;;;;;;;;
2020/05/04 12:37:14;;;;;;;3.3;0.9;;;;;;;;;;;;;
2020/05/04 12:39:39;;;;;;;1.8;0.7;;;;;;;;;;;;;
2020/05/04 12:42:06;;;;;;;3.6;0.8;;;;;;;;;;;;;
2020/05/04 12:44:31;;;;;;;1.3;0.7;;;;;;;;;;;;;
2020/05/04 12:46:57;;;;;;;1.8;0.7;;;;;;;;;;;;;
2020/05/04 12:49:22;;;;;;;1.1;0.6;;;;;;;;;;;;;
2020/05/04 12:51:47;;;;;;;2.2;0.6;;;;;;;;;;;;;
2020/05/04 12:54:12;;;;;;;1.1;0.6;;;;;;;;;;;;;
2020/05/04 12:56:37;;;;;;;1;0.7;;;;;;;;;;;;;
2020/05/04 12:59:03;;;;;;;2.9;0.8;;;;;;;;;;;;;
2020/05/04 13:01:28;;;;;;;2.4;0.7;;;;;;;;;;;;;
2020/05/04 13:03:53;;;;;;;2.5;0.9;;;;;;;;;;;;;
2020/05/04 13:06:18;;;;;;;0.9;0.6;;;;;;;;;;;;;
2020/05/04 13:08:44;;;;;;;2.9;0.8;;;;;;;;;;;;;
2020/05/04 13:11:09;;;;;;;3.8;0.7;;;;;;;;;;;;;
2020/05/04 13:13:36;;;;;;;2.5;0.7;;;;;;;;;;;;;
2020/05/04 13:16:01;;;;;;;1.5;0.6;;;;;;;;;;;;;
2020/05/04 13:18:26;;;;;;;7.1;0.8;;;;;;;;;;;;;
2020/05/04 13:20:51;;;;;;;3.1;0.6;;;;;;;;;;;;;
2020/05/04 13:23:16;;;;;;;1.9;0.6;;;;;;;;;;;;;
2020/05/04 13:25:41;;;;;;;1.5;0.5;;;;;;;;;;;;;
2020/05/04 13:28:07;;;;;;;1;0.6;;;;;;;;;;;;;
2020/05/04 13:30:34;;;;;;;0.7;0.5;;;;;;;;;;;;;
2020/05/04 13:33:00;;;;;;;1.1;0.5;;;;;;;;;;;;;
2020/05/04 13:35:25;;;;;;;0.6;0.4;;;;;;;;;;;;;
2020/05/04 13:37:50;;;;;;;1;0.6;;;;;;;;;;;;;
2020/05/04 13:40:15;;;;;;;1.2;0.5;;;;;;;;;;;;;
2020/05/04 13:42:40;;;;;;;0.8;0.4;;;;;;;;;;;;;
2020/05/04 13:45:05;;;;;;;3.6;0.5;;;;;;;;;;;;;
2020/05/04 13:47:30;;;;;;;2.7;0.7;;;;;;;;;;;;;
2020/05/04 13:49:56;;;;;;;2.5;1.2;;;;;;;;;;;;;
2020/05/04 13:52:21;;;;;;;6.4;1.7;;;;;;;;;;;;;
2020/05/04 13:54:46;;;;;;;2.7;1.1;;;;;;;;;;;;;
2020/05/04 13:57:11;;;;;;;3.2;0.9;;;;;;;;;;;;;
2020/05/04 13:59:37;;;;;;;2.5;1.3;;;;;;;;;;;;;
2020/05/04 14:02:02;;;;;;;1.9;0.8;;;;;;;;;;;;;
2020/05/04 14:04:27;;;;;;;1.2;0.6;;;;;;;;;;;;;
2020/05/04 14:06:53;;;;;;;2.7;0.7;;;;;;;;;;;;;
2020/05/04 14:09:18;;;;;;;2.1;0.7;;;;;;;;;;;;;
2020/05/04 14:11:44;;;;;;;2.3;0.6;;;;;;;;;;;;;
2020/05/04 14:14:09;;;;;;;1.6;0.5;;;;;;;;;;;;;
2020/05/04 14:16:35;;;;;;;1.6;0.6;;;;;;;;;;;;;
2020/05/04 14:19:00;;;;;;;1.4;0.6;;;;;;;;;;;;;
2020/05/04 14:21:26;;;;;;;1.6;0.6;;;;;;;;;;;;;
2020/05/04 14:23:52;;;;;;;1.8;0.7;;;;;;;;;;;;;
2020/05/04 14:26:17;;;;;;;1.8;0.5;;;;;;;;;;;;;
2020/05/04 14:28:42;;;;;;;1.9;0.6;;;;;;;;;;;;;
2020/05/04 14:31:07;;;;;;;2.8;0.6;;;;;;;;;;;;;
2020/05/04 14:33:33;;;;;;;1.6;0.5;;;;;;;;;;;;;
2020/05/04 14:35:58;;;;;;;2.5;0.9;;;;;;;;;;;;;
2020/05/04 14:38:23;;;;;;;1.9;0.6;;;;;;;;;;;;;
2020/05/04 14:40:48;;;;;;;1.1;0.7;;;;;;;;;;;;;
2020/05/04 14:43:14;;;;;;;1.7;0.8;;;;;;;;;;;;;
2020/05/04 14:45:39;;;;;;;2.9;0.9;;;;;;;;;;;;;
2020/05/04 14:48:06;;;;;;;3.6;0.9;;;;;;;;;;;;;
2020/05/04 14:50:31;;;;;;;2.9;0.7;;;;;;;;;;;;;
2020/05/04 14:52:56;;;;;;;1.9;0.6;;;;;;;;;;;;;
2020/05/04 14:55:21;;;;;;;2;0.7;;;;;;;;;;;;;
2020/05/04 14:57:46;;;;;;;2.4;0.7;;;;;;;;;;;;;
2020/05/04 15:00:11;;;;;;;3;0.7;;;;;;;;;;;;;
2020/05/04 15:02:36;;;;;;;4.4;0.9;;;;;;;;;;;;;
2020/05/04 15:05:01;;;;;;;1.5;0.7;;;;;;;;;;;;;
2020/05/04 15:07:27;;;;;;;3.5;0.7;;;;;;;;;;;;;
2020/05/04 15:09:59;;;;;;;3.3;0.7;;;;;;;;;;;;;
2020/05/04 15:12:21;;;;;;;1.4;0.6;;;;;;;;;;;;;
2020/05/04 15:14:43;;;;;;;2;0.7;;;;;;;;;;;;;
2020/05/04 15:17:11;;;;;;;4.6;1;;;;;;;;;;;;;
2020/05/04 15:19:37;;;;;;;4.5;0.9;;;;;;;;;;;;;
2020/05/04 15:29:19;;;;;;;1.5;0.7;;;;;;;;;;;;;
2020/05/04 15:32:07;;;;;;;3.6;0.8;;;;;;;;;;;;;
2020/05/04 15:34:09;;;;;;;2.7;0.7;;;;;;;;;;;;;
2020/05/04 15:36:30;;;;;;;2.5;0.7;;;;;;;;;;;;;
2020/05/04 15:39:07;;;;;;;3.5;0.6;;;;;;;;;;;;;
2020/05/04 15:41:20;;;;;;;2.5;0.6;;;;;;;;;;;;;
2020/05/04 15:43:45;;;;;;;1.1;0.7;;;;;;;;;;;;;
2020/05/04 15:46:10;;;;;;;1.5;0.7;;;;;;;;;;;;;
2020/05/04 15:48:35;;;;;;;5.6;0.7;;;;;;;;;;;;;
2020/05/04 15:51:00;;;;;;;3;0.7;;;;;;;;;;;;;
2020/05/04 15:53:25;;;;;;;4.5;0.7;;;;;;;;;;;;;
2020/05/04 15:55:51;;;;;;;1.1;0.6;;;;;;;;;;;;;
2020/05/04 15:58:16;;;;;;;1.3;0.6;;;;;;;;;;;;;
2020/05/04 16:00:41;;;;;;;3.7;0.6;;;;;;;;;;;;;
2020/05/04 16:03:06;;;;;;;1.6;0.5;;;;;;;;;;;;;
2020/05/04 16:05:31;;;;;;;3.2;0.8;;;;;;;;;;;;;
2020/05/04 16:07:56;;;;;;;1.7;0.9;;;;;;;;;;;;;
2020/05/04 16:10:22;;;;;;;5.1;0.8;;;;;;;;;;;;;
2020/05/04 16:12:47;;;;;;;1.8;0.7;;;;;;;;;;;;;
2020/05/04 16:15:12;;;;;;;2.2;0.6;;;;;;;;;;;;;
2020/05/04 16:17:37;;;;;;;1.1;0.6;;;;;;;;;;;;;
2020/05/04 16:20:02;;;;;;;2.4;0.6;;;;;;;;;;;;;
2020/05/04 16:22:27;;;;;;;1.9;0.7;;;;;;;;;;;;;
2020/05/04 16:24:52;;;;;;;2.5;0.7;;;;;;;;;;;;;
2020/05/04 16:27:18;;;;;;;1.3;0.7;;;;;;;;;;;;;
2020/05/04 16:29:43;;;;;;;5.3;1.1;;;;;;;;;;;;;
2020/05/04 16:32:08;;;;;;;1.3;0.6;;;;;;;;;;;;;
2020/05/04 16:34:33;;;;;;;2.7;0.7;;;;;;;;;;;;;
2020/05/04 16:36:59;;;;;;;1.8;0.9;;;;;;;;;;;;;
2020/05/04 16:39:24;;;;;;;2.3;0.8;;;;;;;;;;;;;
2020/05/04 16:41:49;;;;;;;2.8;1.1;;;;;;;;;;;;;
2020/05/04 16:44:14;;;;;;;1.3;0.9;;;;;;;;;;;;;
2020/05/04 16:46:39;;;;;;;1.8;1;;;;;;;;;;;;;
2020/05/04 16:49:05;;;;;;;1.7;0.8;;;;;;;;;;;;;
2020/05/04 16:51:30;;;;;;;1.5;0.8;;;;;;;;;;;;;
2020/05/04 16:53:55;;;;;;;1.4;0.6;;;;;;;;;;;;;
2020/05/04 16:56:20;;;;;;;3.3;0.8;;;;;;;;;;;;;
2020/05/04 16:58:46;;;;;;;2.1;1.1;;;;;;;;;;;;;
2020/05/04 17:01:11;;;;;;;4.3;3.4;;;;;;;;;;;;;
2020/05/04 17:03:36;;;;;;;5.3;2.1;;;;;;;;;;;;;
2020/05/04 17:06:01;;;;;;;2.4;1.1;;;;;;;;;;;;;
2020/05/04 17:08:26;;;;;;;6.7;5;;;;;;;;;;;;;
2020/05/04 17:10:51;;;;;;;3.9;2.3;;;;;;;;;;;;;
2020/05/04 17:13:17;;;;;;;3.1;2;;;;;;;;;;;;;
2020/05/04 17:15:42;;;;;;;3.2;1;;;;;;;;;;;;;
2020/05/04 17:18:07;;;;;;;2.3;1.1;;;;;;;;;;;;;
2020/05/04 17:20:33;;;;;;;2.5;1.3;;;;;;;;;;;;;
2020/05/04 17:23:06;;;;;;;4;1.2;;;;;;;;;;;;;
2020/05/04 17:25:22;;;;;;;2.4;1;;;;;;;;;;;;;
2020/05/04 17:27:47;;;;;;;5.6;1;;;;;;;;;;;;;
2020/05/04 17:30:12;;;;;;;3.5;1.7;;;;;;;;;;;;;
2020/05/04 17:32:37;;;;;;;2.9;1.5;;;;;;;;;;;;;
2020/05/04 17:35:02;;;;;;;3.3;1.1;;;;;;;;;;;;;
2020/05/04 17:37:27;;;;;;;5.2;1.2;;;;;;;;;;;;;
2020/05/04 17:39:53;;;;;;;3.5;1.2;;;;;;;;;;;;;
2020/05/04 17:42:18;;;;;;;8;4.7;;;;;;;;;;;;;
2020/05/04 17:44:43;;;;;;;6.1;4.8;;;;;;;;;;;;;
2020/05/04 17:47:08;;;;;;;7.5;3.4;;;;;;;;;;;;;
2020/05/04 17:51:58;;;;;;;2.5;1.5;;;;;;;;;;;;;
2020/05/04 17:54:24;;;;;;;2.9;2.1;;;;;;;;;;;;;
2020/05/04 17:56:49;;;;;;;2.7;1.5;;;;;;;;;;;;;
2020/05/04 17:59:14;;;;;;;2.7;1.3;;;;;;;;;;;;;
2020/05/04 18:01:46;;;;;;;3.3;1.4;;;;;;;;;;;;;
2020/05/04 18:04:15;;;;;;;4.3;2.6;;;;;;;;;;;;;
2020/05/04 18:06:37;;;;;;;4.1;2.7;;;;;;;;;;;;;
2020/05/04 18:09:18;;;;;;;3.2;2.3;;;;;;;;;;;;;
2020/05/04 18:13:51;;;;;;;17.9;14.8;;;;;;;;;;;;;
2020/05/04 18:16:26;;;;;;;18.4;12.5;;;;;;;;;;;;;
2020/05/04 18:18:35;;;;;;;17.8;14.9;;;;;;;;;;;;;
2020/05/04 18:23:36;;;;;;;8.6;3.8;;;;;;;;;;;;;
2020/05/04 18:25:59;;;;;;;7.3;2.1;;;;;;;;;;;;;
2020/05/04 18:28:39;;;;;;;5.4;2;;;;;;;;;;;;;
2020/05/04 18:30:48;;;;;;;4.2;2.5;;;;;;;;;;;;;
2020/05/04 18:33:16;;;;;;;6.3;2.1;;;;;;;;;;;;;
2020/05/04 18:37:58;;;;;;;3.8;1.8;;;;;;;;;;;;;
2020/05/04 18:40:23;;;;;;;3.4;1.8;;;;;;;;;;;;;
2020/05/04 18:42:48;;;;;;;4.7;2.1;;;;;;;;;;;;;
2020/05/04 18:45:13;;;;;;;3.6;1.7;;;;;;;;;;;;;
2020/05/04 18:47:38;;;;;;;3.3;1.8;;;;;;;;;;;;;
2020/05/04 18:50:03;;;;;;;2.7;1.9;;;;;;;;;;;;;
2020/05/04 18:52:31;;;;;;;5.9;2.4;;;;;;;;;;;;;
2020/05/04 18:54:56;;;;;;;5.3;2.4;;;;;;;;;;;;;
2020/05/04 18:57:21;;;;;;;4.3;2.1;;;;;;;;;;;;;
2020/05/04 18:59:46;;;;;;;4.2;2.1;;;;;;;;;;;;;
2020/05/04 19:02:11;;;;;;;4.4;2.3;;;;;;;;;;;;;
2020/05/04 19:04:36;;;;;;;3.8;2.3;;;;;;;;;;;;;
2020/05/04 19:07:02;;;;;;;8;3.2;;;;;;;;;;;;;
2020/05/04 19:09:27;;;;;;;5.1;2.7;;;;;;;;;;;;;
2020/05/04 19:11:52;;;;;;;4.7;2.3;;;;;;;;;;;;;
2020/05/04 19:14:17;;;;;;;6;2.4;;;;;;;;;;;;;
2020/05/04 19:16:42;;;;;;;4.6;2.2;;;;;;;;;;;;;
2020/05/04 19:19:07;;;;;;;7;2.2;;;;;;;;;;;;;
2020/05/04 19:21:32;;;;;;;6.2;2.2;;;;;;;;;;;;;
2020/05/04 19:23:57;;;;;;;3.1;1.6;;;;;;;;;;;;;
2020/05/04 19:26:22;;;;;;;4.5;2.1;;;;;;;;;;;;;
2020/05/04 19:28:47;;;;;;;4.1;2.2;;;;;;;;;;;;;
2020/05/04 19:31:12;;;;;;;5.7;2.2;;;;;;;;;;;;;
2020/05/04 19:33:38;;;;;;;4.4;2.4;;;;;;;;;;;;;
2020/05/04 19:36:03;;;;;;;6.8;2.6;;;;;;;;;;;;;
2020/05/04 19:38:28;;;;;;;5;2.5;;;;;;;;;;;;;
2020/05/04 19:40:53;;;;;;;6.9;2.8;;;;;;;;;;;;;
2020/05/04 19:43:18;;;;;;;6.3;2.7;;;;;;;;;;;;;
2020/05/04 19:45:44;;;;;;;4.4;2.5;;;;;;;;;;;;;
2020/05/04 19:48:09;;;;;;;6.7;2.5;;;;;;;;;;;;;
2020/05/04 19:50:34;;;;;;;6.9;2.8;;;;;;;;;;;;;
2020/05/04 19:52:59;;;;;;;6;2.8;;;;;;;;;;;;;
2020/05/04 19:55:24;;;;;;;5;3;;;;;;;;;;;;;
2020/05/04 19:57:49;;;;;;;7.4;3.2;;;;;;;;;;;;;
2020/05/04 20:00:15;;;;;;;5.7;3;;;;;;;;;;;;;
2020/05/04 20:02:40;;;;;;;4.7;2.8;;;;;;;;;;;;;
2020/05/04 20:05:05;;;;;;;5.9;2.7;;;;;;;;;;;;;
2020/05/04 20:07:31;;;;;;;4.5;2.6;;;;;;;;;;;;;
2020/05/04 20:09:56;;;;;;;3.5;2.3;;;;;;;;;;;;;
2020/05/04 20:12:21;;;;;;;6;2.7;;;;;;;;;;;;;
2020/05/04 20:14:46;;;;;;;5.4;2.1;;;;;;;;;;;;;
2020/05/04 20:17:11;;;;;;;4.4;2.3;;;;;;;;;;;;;
2020/05/04 20:19:36;;;;;;;4.9;2.1;;;;;;;;;;;;;
2020/05/04 20:22:01;;;;;;;3.9;1.7;;;;;;;;;;;;;
2020/05/04 20:24:26;;;;;;;3.3;1.8;;;;;;;;;;;;;